Time;durP1;ratioP1;P1;durP2;ratioP2;P2;SDS_P1;SDS_P2;PMS_P1;PMS_P2;Temp;Humidity;BMP_temperature;BMP_pressure;BME280_temperature;BME280_humidity;BME280_pressure;Samples;Min_cycle;Max_cycle;Signal;HPM_P1;HPM_P2
2022/06/03 00:02:03;;;;;;;27.80;19.55;;;17.90;99.90;;;;;;5053092;28;20037;-57
2022/06/03 00:04:45;;;;;;;23.27;18.67;;;17.80;99.90;;;;;;5053985;28;20394;-57
2022/06/03 00:07:26;;;;;;;33.75;20.90;;;17.90;99.90;;;;;;5053819;28;20123;-57
2022/06/03 00:10:12;;;;;;;39.70;24.05;;;17.80;99.90;;;;;;5053884;28;20033;-57
2022/06/03 00:13:15;;;;;;;38.03;23.25;;;17.80;99.90;;;;;;5053820;28;20035;-57
2022/06/03 00:15:54;;;;;;;34.25;20.60;;;17.80;99.90;;;;;;5053933;28;20035;-57
2022/06/03 00:18:48;;;;;;;27.00;19.77;;;17.80;99.90;;;;;;5053997;28;20070;-57
2022/06/03 00:21:45;;;;;;;27.60;20.90;;;17.80;99.90;;;;;;5053338;28;20029;-57
2022/06/03 00:24:22;;;;;;;41.08;24.70;;;17.70;99.90;;;;;;5053387;28;20048;-57
2022/06/03 00:27:18;;;;;;;40.28;24.88;;;17.80;99.90;;;;;;5053634;28;20027;-57
2022/06/03 00:29:52;;;;;;;47.58;28.48;;;17.80;99.90;;;;;;5035700;28;20048;-57
2022/06/03 00:33:03;;;;;;;53.47;29.15;;;17.80;99.90;;;;;;5053787;28;20586;-57
2022/06/03 00:35:41;;;;;;;;;;;17.80;99.90;;;;;;5054153;28;20148;-57
2022/06/03 00:38:31;;;;;;;50.35;29.15;;;17.80;99.90;;;;;;5053669;28;19913;-57
2022/06/03 00:41:06;;;;;;;39.63;24.83;;;17.80;99.90;;;;;;5053191;28;20029;-57
2022/06/03 00:43:41;;;;;;;29.05;20.77;;;17.90;99.90;;;;;;5053581;28;20473;-57
2022/06/03 00:46:44;;;;;;;29.25;20.92;;;17.90;99.90;;;;;;5053570;28;20025;-57
2022/06/03 00:49:32;;;;;;;24.77;16.58;;;18.00;99.90;;;;;;5053354;28;20065;-57
2022/06/03 00:52:28;;;;;;;25.02;18.05;;;17.90;99.90;;;;;;5053400;28;20041;-57
2022/06/03 00:54:54;;;;;;;28.63;19.67;;;17.80;99.90;;;;;;5053312;28;20381;-57
2022/06/03 00:57:50;;;;;;;27.42;20.98;;;17.90;99.90;;;;;;5053602;28;20024;-57
2022/06/03 01:00:24;;;;;;;25.73;20.63;;;18.00;99.90;;;;;;5053370;28;20127;-57
2022/06/03 01:03:24;;;;;;;30.85;20.85;;;18.00;99.90;;;;;;5053258;28;20029;-57
2022/06/03 01:06:08;;;;;;;28.92;21.25;;;18.10;99.90;;;;;;5053449;28;20115;-57
2022/06/03 01:08:58;;;;;;;24.70;18.80;;;18.20;99.90;;;;;;5053713;28;20576;-57
2022/06/03 01:11:45;;;;;;;29.38;16.67;;;18.30;99.90;;;;;;5053538;28;20113;-57
2022/06/03 01:14:48;;;;;;;23.17;16.52;;;18.40;99.90;;;;;;5053234;28;20101;-57
2022/06/03 01:17:23;;;;;;;20.20;12.73;;;18.70;99.90;;;;;;5052945;28;20458;-57
2022/06/03 01:19:57;;;;;;;20.85;11.38;;;18.80;99.90;;;;;;5056731;28;20029;-57
2022/06/03 01:22:47;;;;;;;13.98;10.43;;;18.90;99.90;;;;;;5056968;28;20035;-58
2022/06/03 01:25:51;;;;;;;17.60;11.43;;;19.00;99.90;;;;;;5056659;28;20402;-57
2022/06/03 01:28:40;;;;;;;22.67;17.35;;;19.10;99.90;;;;;;5056791;28;20505;-58
2022/06/03 01:31:31;;;;;;;26.00;16.73;;;19.10;99.90;;;;;;5056417;28;20036;-58
2022/06/03 01:34:16;;;;;;;25.02;15.35;;;19.00;99.90;;;;;;5038683;28;20087;-58
2022/06/03 01:37:00;;;;;;;26.02;15.38;;;18.90;99.90;;;;;;5056667;28;20037;-58
2022/06/03 01:39:40;;;;;;;25.00;15.63;;;18.90;99.90;;;;;;5056492;28;20374;-58
2022/06/03 01:42:15;;;;;;;20.50;15.57;;;18.90;99.90;;;;;;5056397;28;20467;-58
2022/06/03 01:45:10;;;;;;;23.60;15.30;;;18.90;99.90;;;;;;5056373;28;20615;-58
2022/06/03 01:48:02;;;;;;;15.13;10.93;;;18.90;99.90;;;;;;5056483;28;20036;-58
2022/06/03 01:50:46;;;;;;;18.63;10.60;;;19.00;99.90;;;;;;5056484;28;20036;-58
2022/06/03 01:53:36;;;;;;;20.60;15.02;;;19.10;99.90;;;;;;5056177;28;20037;-58
2022/06/03 01:56:43;;;;;;;23.87;16.73;;;19.10;99.90;;;;;;5056062;28;20037;-58
2022/06/03 01:59:20;;;;;;;22.65;17.10;;;19.00;99.90;;;;;;4974665;28;20041;-58
2022/06/03 02:02:00;;;;;;;17.85;14.07;;;18.90;99.90;;;;;;4974834;28;20636;-58
2022/06/03 02:04:32;;;;;;;19.55;14.88;;;18.80;99.90;;;;;;4975114;28;20072;-58
2022/06/03 02:06:58;;;;;;;22.65;15.70;;;18.70;99.90;;;;;;4974505;28;20034;-58
2022/06/03 02:09:51;;;;;;;20.10;15.70;;;18.70;99.90;;;;;;4974736;28;20385;-58
2022/06/03 02:12:37;;;;;;;17.83;15.65;;;18.60;99.90;;;;;;4974737;28;20106;-58
2022/06/03 02:15:27;;;;;;;23.05;17.98;;;18.60;99.90;;;;;;4945227;28;20046;-58
2022/06/03 02:18:11;;;;;;;22.70;16.10;;;18.60;99.90;;;;;;4974492;28;20049;-57
2022/06/03 02:21:09;;;;;;;20.80;17.35;;;18.60;99.90;;;;;;4974650;28;20042;-58
2022/06/03 02:23:54;;;;;;;25.85;18.60;;;18.70;99.90;;;;;;4949708;28;20489;-58
2022/06/03 02:26:22;;;;;;;22.23;17.50;;;18.70;99.90;;;;;;4993951;28;20034;-57
2022/06/03 02:32:35;;;;;;;23.45;18.60;;;18.60;99.90;;;;;;5055499;28;20545;-58
2022/06/03 02:35:18;;;;;;;23.25;18.75;;;18.50;99.90;;;;;;4990209;28;20119;-58
2022/06/03 02:37:53;;;;;;;22.33;17.98;;;18.50;99.90;;;;;;5054204;28;20107;-58
2022/06/03 02:40:35;;;;;;;23.10;19.05;;;18.40;99.90;;;;;;5055335;28;20490;-58
2022/06/03 02:43:25;;;;;;;25.80;18.92;;;18.40;99.90;;;;;;5055016;28;20033;-58
2022/06/03 02:46:30;;;;;;;22.65;18.27;;;18.40;99.90;;;;;;5018671;28;20086;-57
2022/06/03 02:49:13;;;;;;;21.75;17.67;;;18.30;99.90;;;;;;5054511;28;20041;-58
2022/06/03 02:51:48;;;;;;;20.63;17.35;;;18.20;99.90;;;;;;5055382;28;20097;-57
2022/06/03 02:54:57;;;;;;;23.25;19.13;;;18.30;99.90;;;;;;5055190;28;20032;-57
2022/06/03 02:57:42;;;;;;;28.48;22.40;;;18.30;99.90;;;;;;5055002;28;20025;-57
2022/06/03 03:00:33;;;;;;;31.65;22.55;;;18.20;99.90;;;;;;5054847;28;20060;-58
2022/06/03 03:03:20;;;;;;;27.58;23.67;;;18.20;99.90;;;;;;5054729;28;20060;-58
2022/06/03 03:05:57;;;;;;;30.42;24.33;;;18.20;99.90;;;;;;5055013;28;20036;-58
2022/06/03 03:08:48;;;;;;;29.83;24.60;;;18.20;99.90;;;;;;5054946;28;20032;-57
2022/06/03 03:11:41;;;;;;;30.17;24.65;;;18.20;99.90;;;;;;5054530;28;20033;-58
2022/06/03 03:14:38;;;;;;;27.83;23.25;;;18.20;99.90;;;;;;5054778;28;20057;-57
2022/06/03 03:17:25;;;;;;;27.27;22.98;;;18.20;99.90;;;;;;5054453;28;20033;-58
2022/06/03 03:20:09;;;;;;;30.60;22.27;;;18.20;99.90;;;;;;5054406;28;20059;-58
2022/06/03 03:23:07;;;;;;;27.08;21.15;;;18.20;99.90;;;;;;5054661;28;20048;-57
2022/06/03 03:25:51;;;;;;;23.55;21.00;;;18.10;99.90;;;;;;5034048;28;20040;-58
2022/06/03 03:28:17;;;;;;;23.95;18.92;;;18.10;99.90;;;;;;5034630;28;20060;-58
2022/06/03 03:31:07;;;;;;;25.00;18.73;;;18.10;99.90;;;;;;5034558;28;20037;-58
2022/06/03 03:34:01;;;;;;;21.10;18.75;;;18.10;99.90;;;;;;5034434;28;20554;-58
2022/06/03 03:36:36;;;;;;;27.25;21.77;;;18.10;99.90;;;;;;5034526;28;20108;-58
2022/06/03 03:39:40;;;;;;;23.27;20.88;;;18.10;99.90;;;;;;5034059;28;20152;-58
2022/06/03 03:42:06;;;;;;;22.65;20.30;;;18.10;99.90;;;;;;5033660;28;20195;-58
2022/06/03 03:44:56;;;;;;;26.10;21.17;;;18.00;99.90;;;;;;5034339;28;20021;-58
2022/06/03 03:48:00;;;;;;;25.40;21.33;;;17.90;99.90;;;;;;5034504;28;20029;-58
2022/06/03 03:50:29;;;;;;;28.17;22.40;;;17.90;99.90;;;;;;5034256;28;20026;-58
2022/06/03 03:53:10;;;;;;;27.63;21.17;;;17.90;99.90;;;;;;5034043;28;20083;-58
2022/06/03 03:56:01;;;;;;;23.20;19.92;;;17.90;99.90;;;;;;5034289;28;20602;-58
2022/06/03 03:58:57;;;;;;;23.23;19.85;;;17.90;99.90;;;;;;5034294;28;20021;-58
2022/06/03 04:01:50;;;;;;;23.00;19.25;;;17.90;99.90;;;;;;5034041;28;20029;-58
2022/06/03 04:04:35;;;;;;;22.17;19.60;;;17.90;99.90;;;;;;5033925;28;20084;-58
2022/06/03 04:07:10;;;;;;;21.70;19.35;;;17.90;99.90;;;;;;5034203;28;20030;-58
2022/06/03 04:10:07;;;;;;;25.05;20.92;;;17.90;99.90;;;;;;5034060;28;20091;-58
2022/06/03 04:13:13;;;;;;;25.55;19.30;;;17.90;99.90;;;;;;5033964;28;20025;-58
2022/06/03 04:16:00;;;;;;;25.15;19.85;;;17.90;99.90;;;;;;5034252;28;20446;-58
2022/06/03 04:18:48;;;;;;;23.33;19.20;;;18.00;99.90;;;;;;5033998;28;20021;-58
2022/06/03 04:21:35;;;;;;;22.92;19.52;;;18.00;99.90;;;;;;5033973;28;20068;-58
2022/06/03 04:24:34;;;;;;;22.83;20.20;;;18.00;99.90;;;;;;5044203;28;20114;-58
2022/06/03 04:27:52;;;;;;;23.38;19.27;;;18.00;99.90;;;;;;5053813;28;20025;-58
2022/06/03 04:30:40;;;;;;;33.85;25.58;;;18.10;99.90;;;;;;5049086;28;20072;-58
2022/06/03 04:33:44;;;;;;;26.52;22.48;;;18.20;99.90;;;;;;5053382;28;20033;-58
2022/06/03 04:36:23;;;;;;;27.85;23.33;;;18.40;99.90;;;;;;5012234;28;20565;-58
2022/06/03 04:39:17;;;;;;;31.83;22.65;;;18.50;99.90;;;;;;5053579;28;20135;-58
2022/06/03 04:42:09;;;;;;;33.78;24.83;;;18.60;99.90;;;;;;5053351;28;20417;-58
2022/06/03 04:44:43;;;;;;;27.83;23.13;;;18.70;99.90;;;;;;5022555;28;20111;-58
2022/06/03 04:47:27;;;;;;;26.60;22.85;;;18.80;99.90;;;;;;5053378;28;20660;-58
2022/06/03 04:50:08;;;;;;;27.73;23.65;;;18.90;99.90;;;;;;5053324;28;20096;-58
2022/06/03 04:53:00;;;;;;;;;;;19.00;99.90;;;;;;5054351;28;20040;-58
2022/06/03 04:55:48;;;;;;;26.10;21.33;;;19.10;99.90;;;;;;5053343;28;19963;-58
2022/06/03 04:58:51;;;;;;;30.70;21.67;;;19.20;99.90;;;;;;5057049;28;20033;-58
2022/06/03 05:01:38;;;;;;;23.65;20.13;;;19.20;99.90;;;;;;5057114;28;20060;-58
2022/06/03 05:04:41;;;;;;;26.85;19.52;;;19.30;99.90;;;;;;5057127;28;20031;-58
2022/06/03 05:07:19;;;;;;;23.75;17.88;;;19.40;99.90;;;;;;5056808;28;20109;-58
2022/06/03 05:10:22;;;;;;;25.40;20.42;;;19.50;99.90;;;;;;5039537;28;20068;-58
2022/06/03 05:13:47;;;;;;;35.20;23.17;;;19.60;99.90;;;;;;5056834;28;20021;-58
2022/06/03 05:16:47;;;;;;;24.65;20.58;;;19.80;99.90;;;;;;4967258;28;20035;-57
2022/06/03 05:19:30;;;;;;;22.77;18.40;;;19.80;99.90;;;;;;4971159;28;20070;-57
2022/06/03 05:22:18;;;;;;;25.25;20.67;;;19.90;99.90;;;;;;4968797;28;20110;-57
2022/06/03 05:25:17;;;;;;;28.30;21.95;;;20.00;99.90;;;;;;4987018;28;20543;-57
2022/06/03 05:27:48;;;;;;;27.27;20.52;;;20.00;99.90;;;;;;4987191;28;20042;-57
2022/06/03 05:30:14;;;;;;;40.83;24.52;;;20.10;99.90;;;;;;4987176;28;20752;-57
2022/06/03 05:33:08;;;;;;;50.83;28.60;;;20.10;99.90;;;;;;4993767;28;20064;-57
2022/06/03 05:35:42;;;;;;;50.30;31.55;;;20.20;99.90;;;;;;4978820;28;20034;-57
2022/06/03 05:38:30;;;;;;;51.35;31.75;;;20.30;99.90;;;;;;4993984;28;20700;-57
2022/06/03 05:41:03;;;;;;;48.40;31.42;;;20.30;99.90;;;;;;4975525;28;20062;-57
2022/06/03 05:43:40;;;;;;;53.75;34.20;;;20.40;99.90;;;;;;4988761;28;20027;-57
2022/06/03 05:46:24;;;;;;;55.30;34.85;;;20.60;99.90;;;;;;5000961;28;20040;-58
2022/06/03 05:49:18;;;;;;;44.25;31.00;;;20.70;99.90;;;;;;5051292;28;20087;-57
2022/06/03 05:52:01;;;;;;;43.40;30.73;;;20.60;99.90;;;;;;5037691;28;20030;-57
2022/06/03 05:54:44;;;;;;;49.30;33.17;;;20.80;99.90;;;;;;5049156;28;20031;-58
2022/06/03 05:57:34;;;;;;;48.97;35.00;;;20.80;99.90;;;;;;5046430;28;20029;-57
2022/06/03 06:00:40;;;;;;;62.90;38.50;;;20.80;99.90;;;;;;5036901;28;20026;-57
2022/06/03 06:03:30;;;;;;;55.03;38.83;;;21.10;99.90;;;;;;5040170;28;20025;-57
2022/06/03 06:06:05;;;;;;;64.78;41.50;;;21.00;99.90;;;;;;5040895;28;20108;-57
2022/06/03 06:08:51;;;;;;;54.75;38.75;;;21.20;99.90;;;;;;5036613;28;20490;-57
2022/06/03 06:11:32;;;;;;;56.50;40.63;;;21.30;99.90;;;;;;5045139;28;20037;-57
2022/06/03 06:14:10;;;;;;;59.63;41.85;;;21.50;99.90;;;;;;5042565;28;20041;-57
2022/06/03 06:16:42;;;;;;;73.88;48.25;;;21.30;99.90;;;;;;5055836;28;20025;-57
2022/06/03 06:19:38;;;;;;;88.78;55.25;;;21.40;99.90;;;;;;5043141;28;20037;-58
2022/06/03 06:22:16;;;;;;;92.70;64.97;;;21.60;99.90;;;;;;5040218;28;20044;-57
2022/06/03 06:25:05;;;;;;;138.73;86.88;;;21.80;99.90;;;;;;5056303;28;20463;-57
2022/06/03 06:27:46;;;;;;;144.57;89.07;;;21.80;99.90;;;;;;5046196;28;20056;-57
2022/06/03 06:30:17;;;;;;;;;;;22.20;99.90;;;;;;5056460;28;20037;-57
2022/06/03 06:33:04;;;;;;;174.07;107.75;;;22.40;99.90;;;;;;5056349;28;20346;-57
2022/06/03 06:36:01;;;;;;;154.73;100.38;;;22.50;99.90;;;;;;5056347;28;20053;-58
2022/06/03 06:38:40;;;;;;;123.18;65.15;;;22.70;99.90;;;;;;5055930;28;20087;-57
2022/06/03 06:41:39;;;;;;;137.18;84.70;;;23.00;99.90;;;;;;5055955;28;20425;-57
2022/06/03 06:44:24;;;;;;;136.13;83.18;;;23.20;99.90;;;;;;5055408;28;20059;-57
2022/06/03 06:47:05;;;;;;;111.70;68.68;;;23.30;99.90;;;;;;5048009;28;20027;-57
2022/06/03 06:49:39;;;;;;;96.25;59.97;;;23.40;99.90;;;;;;5054594;28;20025;-58
2022/06/03 06:52:44;;;;;;;96.82;64.53;;;23.50;99.90;;;;;;5053287;28;20029;-57
2022/06/03 06:55:19;;;;;;;109.82;68.80;;;23.70;99.90;;;;;;5016868;28;20052;-57
2022/06/03 06:57:46;;;;;;;110.30;70.60;;;23.70;99.90;;;;;;5055599;28;20444;-57
2022/06/03 07:00:16;;;;;;;92.22;59.28;;;23.60;99.90;;;;;;5054304;28;20041;-57
2022/06/03 07:03:04;;;;;;;89.00;59.73;;;23.70;99.90;;;;;;5054417;28;20033;-57
2022/06/03 07:05:51;;;;;;;82.05;58.25;;;23.90;99.90;;;;;;5054111;28;20032;-57
2022/06/03 07:08:27;;;;;;;85.25;56.33;;;24.20;99.90;;;;;;5054606;28;20483;-57
2022/06/03 07:11:08;;;;;;;80.18;54.67;;;24.50;99.90;;;;;;5054604;28;20536;-57
2022/06/03 07:13:36;;;;;;;75.70;53.13;;;24.60;99.90;;;;;;5054474;28;20036;-57
2022/06/03 07:19:49;;;;;;;72.90;50.42;;;25.00;99.90;;;;;;5053454;28;20071;-57
2022/06/03 07:22:36;;;;;;;68.03;48.03;;;24.80;99.90;;;;;;5052380;28;20036;-57
2022/06/03 07:25:17;;;;;;;70.53;48.53;;;25.20;99.90;;;;;;5052792;28;20064;-57
2022/06/03 07:27:43;;;;;;;69.00;46.22;;;24.90;99.90;;;;;;5053130;28;20466;-57
2022/06/03 07:30:29;;;;;;;70.70;45.65;;;25.60;99.90;;;;;;5052890;28;20086;-57
2022/06/03 07:33:16;;;;;;;59.85;42.58;;;26.00;99.90;;;;;;5053453;28;20025;-58
2022/06/03 07:35:49;;;;;;;59.70;39.47;;;26.50;99.90;;;;;;5052573;28;20116;-57
2022/06/03 07:38:28;;;;;;;54.67;39.45;;;26.80;97.20;;;;;;5049862;28;20037;-57
2022/06/03 07:41:04;;;;;;;59.10;38.38;;;26.80;94.80;;;;;;5037178;28;20120;-57
2022/06/03 07:43:39;;;;;;;54.75;36.53;;;26.90;95.40;;;;;;5040656;28;20083;-57
2022/06/03 07:46:19;;;;;;;52.85;38.42;;;27.10;91.90;;;;;;5042289;28;20533;-58
2022/06/03 07:48:45;;;;;;;50.08;37.92;;;27.20;94.80;;;;;;5035610;28;20117;-58
2022/06/03 07:51:31;;;;;;;48.78;35.45;;;27.60;92.30;;;;;;5050156;28;20068;-57
2022/06/03 07:54:22;;;;;;;50.72;35.35;;;28.00;90.70;;;;;;5054093;28;20057;-57
2022/06/03 07:56:49;;;;;;;48.63;36.05;;;28.30;91.20;;;;;;5053629;28;20028;-58
2022/06/03 07:59:19;;;;;;;47.00;36.78;;;28.20;90.00;;;;;;5047810;28;20108;-58
2022/06/03 08:01:58;;;;;;;46.10;32.10;;;28.10;84.40;;;;;;5049759;28;20049;-58
2022/06/03 08:04:30;;;;;;;45.43;31.73;;;28.10;80.40;;;;;;5054103;28;20421;-57
2022/06/03 08:13:02;;;;;;;35.67;26.10;;;28.50;81.50;;;;;;5053407;28;20074;-57
2022/06/03 08:15:31;;;;;;;31.73;24.58;;;28.80;79.80;;;;;;5052610;28;20044;-57
2022/06/03 08:18:00;;;;;;;39.03;25.10;;;28.90;75.50;;;;;;5051387;28;20203;-57
2022/06/03 08:20:28;;;;;;;34.67;25.98;;;29.30;81.40;;;;;;5053483;28;20025;-57
2022/06/03 08:22:55;;;;;;;40.75;25.67;;;28.70;74.80;;;;;;5048694;28;20029;-58
2022/06/03 08:25:26;;;;;;;38.67;25.88;;;29.10;79.00;;;;;;5034311;28;20042;-57
2022/06/03 08:27:53;;;;;;;33.30;24.20;;;29.60;76.80;;;;;;5033223;28;20028;-57
2022/06/03 08:30:23;;;;;;;38.25;26.45;;;29.90;71.10;;;;;;5043603;28;20077;-57
2022/06/03 08:33:00;;;;;;;36.95;23.83;;;30.00;72.40;;;;;;5039243;28;20038;-57
2022/06/03 08:35:31;;;;;;;37.78;26.23;;;29.80;70.40;;;;;;5040848;28;20107;-57
2022/06/03 08:38:09;;;;;;;33.80;24.58;;;30.30;70.90;;;;;;5042358;28;20055;-57
2022/06/03 08:40:41;;;;;;;34.35;23.70;;;30.60;68.40;;;;;;5045309;28;20490;-57
2022/06/03 08:43:28;;;;;;;34.38;25.73;;;30.60;64.90;;;;;;5037040;28;20384;-57
2022/06/03 08:45:58;;;;;;;33.85;23.90;;;30.90;69.50;;;;;;5042993;28;20022;-58
2022/06/03 08:48:32;;;;;;;38.70;25.58;;;31.30;63.40;;;;;;5051073;28;20033;-57
2022/06/03 08:51:07;;;;;;;30.77;22.25;;;31.20;62.60;;;;;;5025337;28;20045;-57
2022/06/03 08:53:54;;;;;;;31.00;23.45;;;31.20;65.90;;;;;;5052806;28;20109;-57
2022/06/03 08:56:25;;;;;;;38.30;25.42;;;31.20;63.70;;;;;;5045328;28;20048;-57
2022/06/03 08:58:52;;;;;;;29.45;23.80;;;30.40;64.50;;;;;;5020666;28;20489;-57
2022/06/03 09:01:41;;;;;;;31.63;21.52;;;30.70;64.60;;;;;;5037047;28;20146;-57
2022/06/03 09:04:14;;;;;;;23.55;17.50;;;30.90;63.30;;;;;;5037200;28;20105;-57
2022/06/03 09:07:09;;;;;;;25.90;19.58;;;30.90;64.30;;;;;;5046175;28;20037;-58
2022/06/03 09:09:58;;;;;;;19.42;16.48;;;30.00;69.60;;;;;;5056448;28;20021;-57
2022/06/03 09:12:33;;;;;;;25.13;15.30;;;30.70;66.70;;;;;;5056762;28;20025;-57
2022/06/03 09:15:11;;;;;;;21.00;15.98;;;30.90;65.40;;;;;;5046100;28;20056;-57
2022/06/03 09:17:56;;;;;;;23.13;17.83;;;30.50;65.40;;;;;;5037722;28;20383;-57
2022/06/03 09:20:29;;;;;;;23.40;15.95;;;29.70;66.40;;;;;;5038642;28;20462;-57
2022/06/03 09:23:10;;;;;;;20.52;16.05;;;29.90;70.20;;;;;;5046458;28;20040;-57
2022/06/03 09:25:42;;;;;;;19.80;14.50;;;30.60;77.00;;;;;;5043226;28;20120;-57
2022/06/03 09:28:15;;;;;;;15.68;13.18;;;31.20;64.90;;;;;;5051218;28;20063;-57
2022/06/03 09:30:45;;;;;;;24.63;15.23;;;31.40;68.20;;;;;;5047759;28;20029;-57
2022/06/03 09:33:14;;;;;;;17.52;14.68;;;30.90;67.10;;;;;;5048458;28;20036;-57
2022/06/03 09:35:45;;;;;;;14.82;12.32;;;30.80;66.00;;;;;;5039424;28;20526;-57
2022/06/03 09:38:13;;;;;;;12.32;10.90;;;30.70;67.60;;;;;;5040286;28;20132;-57
2022/06/03 09:40:44;;;;;;;16.05;12.50;;;31.00;70.90;;;;;;5042353;28;20025;-57
2022/06/03 09:43:24;;;;;;;17.60;13.77;;;31.40;64.30;;;;;;5052629;28;20104;-57
2022/06/03 09:45:55;;;;;;;19.50;13.68;;;32.00;69.30;;;;;;5048249;28;20108;-57
2022/06/03 09:48:32;;;;;;;21.70;15.73;;;32.50;60.10;;;;;;5048599;28;20026;-57
2022/06/03 09:51:02;;;;;;;23.92;15.50;;;32.10;59.80;;;;;;5052131;28;20029;-57
2022/06/03 09:53:31;;;;;;;17.67;11.00;;;32.20;60.60;;;;;;5054406;28;20036;-57
2022/06/03 09:56:04;;;;;;;11.48;10.27;;;31.30;59.30;;;;;;5057166;28;20040;-57
2022/06/03 09:58:32;;;;;;;12.27;9.50;;;31.50;58.70;;;;;;5056948;28;20112;-57
2022/06/03 10:00:59;;;;;;;14.93;10.30;;;31.50;60.90;;;;;;5050382;28;20120;-57
2022/06/03 10:03:27;;;;;;;13.15;9.52;;;32.00;60.20;;;;;;5055032;28;20044;-57
2022/06/03 10:06:42;;;;;;;11.43;8.57;;;31.40;57.40;;;;;;5054509;28;20029;-57
2022/06/03 10:14:17;;;;;;;11.20;9.15;;;32.40;52.80;;;;;;5042363;28;20041;-58
2022/06/03 10:16:43;;;;;;;11.10;8.60;;;32.50;56.10;;;;;;5043687;28;20033;-57
2022/06/03 10:19:12;;;;;;;16.25;8.90;;;33.00;53.80;;;;;;5052684;28;20510;-57
2022/06/03 10:21:48;;;;;;;15.68;10.93;;;33.40;52.00;;;;;;5057002;28;20442;-57
2022/06/03 10:24:14;;;;;;;13.05;10.35;;;33.80;54.20;;;;;;5054780;28;20052;-57
2022/06/03 10:26:49;;;;;;;10.10;8.82;;;33.90;53.00;;;;;;5050286;28;20073;-57
2022/06/03 10:29:25;;;;;;;9.65;8.65;;;33.80;50.40;;;;;;5037611;28;20029;-57
2022/06/03 10:31:59;;;;;;;11.20;9.05;;;32.50;53.40;;;;;;5047383;28;20048;-57
2022/06/03 10:34:27;;;;;;;14.18;9.40;;;32.50;52.90;;;;;;5064171;28;20519;-57
2022/06/03 10:36:55;;;;;;;11.60;9.70;;;33.60;55.30;;;;;;5066520;28;20163;-57
2022/06/03 10:39:27;;;;;;;11.75;9.38;;;34.30;55.10;;;;;;5054572;28;20029;-57
2022/06/03 10:41:58;;;;;;;13.93;9.40;;;34.50;51.30;;;;;;5053057;28;20033;-57
2022/06/03 10:44:33;;;;;;;12.23;9.88;;;34.70;52.10;;;;;;5049152;28;20035;-57
2022/06/03 10:47:02;;;;;;;15.57;9.25;;;34.70;51.40;;;;;;5053527;28;20151;-57
2022/06/03 10:49:32;;;;;;;14.40;8.75;;;33.70;53.80;;;;;;5047158;28;20034;-57
2022/06/03 11:03:30;;;;;;;16.08;9.52;;;31.90;58.70;;;;;;5050164;28;20547;-57
2022/06/03 11:05:56;;;;;;;8.93;8.05;;;31.50;60.40;;;;;;5042876;28;20057;-57
2022/06/03 11:08:23;;;;;;;12.93;10.23;;;31.30;60.60;;;;;;5042142;28;20391;-57
2022/06/03 11:10:55;;;;;;;14.90;10.35;;;31.60;66.40;;;;;;5042949;28;20392;-57
2022/06/03 11:13:38;;;;;;;14.25;9.57;;;31.80;58.50;;;;;;5040653;28;20033;-57
2022/06/03 11:16:22;;;;;;;11.88;8.85;;;31.90;57.80;;;;;;5041588;28;20071;-57
2022/06/03 11:18:49;;;;;;;10.60;7.70;;;32.20;60.10;;;;;;5046651;28;20033;-57
2022/06/03 11:21:27;;;;;;;15.15;9.18;;;32.70;59.20;;;;;;5046990;28;20079;-57
2022/06/03 11:23:56;;;;;;;15.93;9.43;;;32.40;54.80;;;;;;5048068;28;20376;-57
2022/06/03 11:26:31;;;;;;;9.20;8.13;;;32.40;58.60;;;;;;5048269;28;20021;-57
2022/06/03 11:29:11;;;;;;;13.23;9.75;;;32.20;61.70;;;;;;5041327;28;20103;-57
2022/06/03 11:31:42;;;;;;;14.07;9.18;;;31.90;60.70;;;;;;5054406;28;20024;-57
2022/06/03 11:34:29;;;;;;;11.82;7.95;;;31.60;65.50;;;;;;5038756;28;20032;-57
2022/06/03 11:37:04;;;;;;;8.38;6.88;;;31.90;64.20;;;;;;5042014;28;20029;-57
2022/06/03 11:39:42;;;;;;;10.10;7.28;;;31.60;59.90;;;;;;5047996;28;20033;-57
2022/06/03 11:42:36;;;;;;;11.75;7.47;;;31.40;60.70;;;;;;5035928;28;20033;-57
2022/06/03 11:45:13;;;;;;;12.45;7.35;;;31.80;59.50;;;;;;5045797;28;20090;-57
2022/06/03 11:47:49;;;;;;;10.13;7.30;;;31.80;63.70;;;;;;5044499;28;20028;-57
2022/06/03 11:50:25;;;;;;;10.93;7.68;;;31.70;58.90;;;;;;5043438;28;20028;-57
2022/06/03 11:52:52;;;;;;;18.80;8.60;;;31.70;59.50;;;;;;5045832;28;20051;-57
2022/06/03 11:55:22;;;;;;;15.15;8.25;;;32.00;63.70;;;;;;5042242;28;20036;-57
2022/06/03 11:58:19;;;;;;;8.37;7.37;;;32.40;57.10;;;;;;5047452;28;20040;-57
2022/06/03 12:00:51;;;;;;;7.40;6.30;;;32.70;58.00;;;;;;5042175;28;20049;-57
2022/06/03 12:03:28;;;;;;;9.25;7.75;;;33.10;57.50;;;;;;5045991;28;20028;-57
2022/06/03 12:06:17;;;;;;;13.88;7.88;;;33.50;56.10;;;;;;5042723;28;20033;-57
2022/06/03 12:09:03;;;;;;;9.27;7.47;;;33.40;54.20;;;;;;5041830;28;20029;-57
2022/06/03 12:14:25;;;;;;;8.90;7.78;;;33.10;56.10;;;;;;5050816;28;20069;-57
2022/06/03 12:16:55;;;;;;;25.60;9.63;;;33.50;57.90;;;;;;5051390;28;20037;-57
2022/06/03 12:19:38;;;;;;;10.43;7.65;;;33.60;58.00;;;;;;5039470;28;20033;-57
2022/06/03 12:22:18;;;;;;;14.07;7.57;;;33.10;55.10;;;;;;5045473;28;20124;-57
2022/06/03 12:24:46;;;;;;;10.10;7.43;;;32.90;57.80;;;;;;5039105;28;20541;-57
2022/06/03 12:27:21;;;;;;;9.82;7.22;;;33.00;57.60;;;;;;5042249;28;20032;-57
2022/06/03 12:30:05;;;;;;;16.70;8.38;;;32.80;57.80;;;;;;5041976;28;20609;-57
2022/06/03 12:32:46;;;;;;;9.73;8.60;;;32.90;56.30;;;;;;5037632;28;20036;-57
2022/06/03 12:35:43;;;;;;;12.88;9.38;;;33.10;60.10;;;;;;5040596;28;20479;-57
2022/06/03 12:38:21;;;;;;;15.77;8.73;;;33.30;56.50;;;;;;5045949;28;20356;-57
2022/06/03 12:40:58;;;;;;;10.43;7.63;;;33.20;54.10;;;;;;5046345;28;20037;-57
2022/06/03 12:43:30;;;;;;;8.07;7.03;;;32.90;56.20;;;;;;5043689;28;20017;-57
2022/06/03 12:46:08;;;;;;;9.57;7.10;;;32.50;57.20;;;;;;5053054;28;20037;-57
2022/06/03 12:48:53;;;;;;;11.75;7.72;;;32.00;57.20;;;;;;5052573;28;20047;-57
2022/06/03 12:51:28;;;;;;;9.93;7.45;;;30.90;56.30;;;;;;5048174;28;20064;-57
2022/06/03 12:54:15;;;;;;;10.05;7.63;;;30.80;55.80;;;;;;5037665;28;20495;-57
2022/06/03 12:56:51;;;;;;;9.52;8.20;;;30.40;56.30;;;;;;5045564;28;20037;-57
2022/06/03 12:59:27;;;;;;;10.60;7.22;;;30.30;57.20;;;;;;5047828;28;20036;-57
2022/06/03 13:02:00;;;;;;;11.98;8.38;;;30.90;56.60;;;;;;5039864;28;20112;-57
2022/06/03 13:04:54;;;;;;;14.27;8.25;;;31.30;55.80;;;;;;5050120;28;20021;-57
2022/06/03 13:07:26;;;;;;;9.75;7.75;;;31.80;54.10;;;;;;5043247;28;20383;-57
2022/06/03 13:10:08;;;;;;;11.73;6.97;;;32.10;53.00;;;;;;5039002;28;20104;-57
2022/06/03 13:12:34;;;;;;;11.35;7.43;;;31.80;51.50;;;;;;5034905;28;20026;-57
2022/06/03 13:15:22;;;;;;;13.63;7.22;;;31.90;55.20;;;;;;5037528;28;20082;-57
2022/06/03 13:18:02;;;;;;;11.70;7.40;;;31.80;56.40;;;;;;5037390;28;20047;-57
2022/06/03 13:20:44;;;;;;;9.93;6.43;;;32.10;55.90;;;;;;5041050;28;20107;-57
2022/06/03 13:23:29;;;;;;;12.30;7.22;;;32.10;53.70;;;;;;5042528;28;20037;-57
2022/06/03 13:26:30;;;;;;;19.52;8.70;;;32.20;56.50;;;;;;5048537;28;20018;-57
2022/06/03 13:29:02;;;;;;;13.02;8.65;;;31.80;54.00;;;;;;5046514;28;20021;-57
2022/06/03 13:31:40;;;;;;;15.02;7.72;;;31.60;53.40;;;;;;5056796;28;20112;-57
2022/06/03 13:34:12;;;;;;;10.65;7.53;;;31.60;54.80;;;;;;5055804;28;20056;-57
2022/06/03 13:36:44;;;;;;;13.15;8.32;;;31.80;50.80;;;;;;5056422;28;20114;-57
2022/06/03 13:39:33;;;;;;;15.57;8.48;;;32.10;52.40;;;;;;5056307;28;20029;-57
2022/06/03 13:45:03;;;;;;;14.70;8.18;;;31.70;50.80;;;;;;5053087;28;20113;-57
2022/06/03 13:47:54;;;;;;;18.60;7.93;;;32.00;52.60;;;;;;5056099;28;20025;-57
2022/06/03 13:50:30;;;;;;;11.32;6.90;;;32.20;50.30;;;;;;5054850;28;20471;-57
2022/06/03 13:53:10;;;;;;;9.40;6.72;;;32.50;52.30;;;;;;5051754;28;20421;-57
2022/06/03 13:55:36;;;;;;;6.32;5.63;;;32.30;50.00;;;;;;5053319;28;20029;-57
2022/06/03 13:58:15;;;;;;;6.15;5.47;;;31.80;50.10;;;;;;5052330;28;20315;-57
2022/06/03 14:00:57;;;;;;;6.75;5.50;;;32.00;51.50;;;;;;5050936;28;20033;-57
2022/06/03 14:03:29;;;;;;;7.88;6.18;;;32.10;49.70;;;;;;5053728;28;20490;-57
2022/06/03 14:06:22;;;;;;;8.15;5.85;;;31.80;49.70;;;;;;5055622;28;20021;-57
2022/06/03 14:09:02;;;;;;;6.78;6.05;;;31.80;50.00;;;;;;5053105;28;20078;-57
2022/06/03 14:11:33;;;;;;;;;;;31.80;53.80;;;;;;5056177;28;20051;-57
2022/06/03 14:14:12;;;;;;;7.88;5.68;;;31.90;54.00;;;;;;5055620;28;19960;-57
2022/06/03 14:16:48;;;;;;;8.88;5.20;;;31.90;57.30;;;;;;5036249;28;20079;-57
2022/06/03 14:19:51;;;;;;;6.25;5.15;;;31.90;50.50;;;;;;5036443;28;20034;-57